sensor_id;sensor_type;location;lat;lon;timestamp;P1;durP1;ratioP1;P2;durP2;ratioP2
37777;SDS011;23615;51.506;7.678;2023-11-21T00:01:24;7.37;;;5.40;;
37777;SDS011;23615;51.506;7.678;2023-11-21T00:03:49;9.20;;;5.87;;
37777;SDS011;23615;51.506;7.678;2023-11-21T00:06:15;8.13;;;6.20;;
37777;SDS011;23615;51.506;7.678;2023-11-21T00:08:40;9.30;;;6.60;;
37777;SDS011;23615;51.506;7.678;2023-11-21T00:11:05;9.63;;;6.40;;
37777;SDS011;23615;51.506;7.678;2023-11-21T00:13:31;7.87;;;5.50;;
37777;SDS011;23615;51.506;7.678;2023-11-21T00:15:57;9.07;;;6.28;;
37777;SDS011;23615;51.506;7.678;2023-11-21T00:18:23;9.05;;;6.72;;
37777;SDS011;23615;51.506;7.678;2023-11-21T00:20:48;8.87;;;6.20;;
37777;SDS011;23615;51.506;7.678;2023-11-21T00:23:13;6.57;;;5.93;;
37777;SDS011;23615;51.506;7.678;2023-11-21T00:25:38;7.60;;;6.07;;
37777;SDS011;23615;51.506;7.678;2023-11-21T00:28:05;7.03;;;5.45;;
37777;SDS011;23615;51.506;7.678;2023-11-21T00:30:30;5.97;;;5.47;;
37777;SDS011;23615;51.506;7.678;2023-11-21T00:32:56;5.50;;;4.40;;
37777;SDS011;23615;51.506;7.678;2023-11-21T00:35:22;5.60;;;4.60;;
37777;SDS011;23615;51.506;7.678;2023-11-21T00:37:47;5.53;;;4.27;;
37777;SDS011;23615;51.506;7.678;2023-11-21T00:40:14;5.82;;;4.78;;
37777;SDS011;23615;51.506;7.678;2023-11-21T00:42:40;5.75;;;4.53;;
37777;SDS011;23615;51.506;7.678;2023-11-21T00:45:06;4.73;;;3.90;;
37777;SDS011;23615;51.506;7.678;2023-11-21T00:47:32;5.03;;;4.53;;
37777;SDS011;23615;51.506;7.678;2023-11-21T00:49:57;4.77;;;4.27;;
37777;SDS011;23615;51.506;7.678;2023-11-21T00:52:22;7.17;;;5.53;;
37777;SDS011;23615;51.506;7.678;2023-11-21T00:54:48;5.63;;;5.00;;
37777;SDS011;23615;51.506;7.678;2023-11-21T00:57:13;6.60;;;5.00;;
37777;SDS011;23615;51.506;7.678;2023-11-21T00:59:39;4.88;;;4.38;;
37777;SDS011;23615;51.506;7.678;2023-11-21T01:02:04;5.40;;;4.90;;
37777;SDS011;23615;51.506;7.678;2023-11-21T01:04:30;5.67;;;4.53;;
37777;SDS011;23615;51.506;7.678;2023-11-21T01:06:57;6.50;;;5.13;;
37777;SDS011;23615;51.506;7.678;2023-11-21T01:09:22;7.03;;;5.50;;
37777;SDS011;23615;51.506;7.678;2023-11-21T01:11:48;5.05;;;4.55;;
37777;SDS011;23615;51.506;7.678;2023-11-21T01:14:13;4.97;;;4.47;;
37777;SDS011;23615;51.506;7.678;2023-11-21T01:16:39;5.07;;;4.43;;
37777;SDS011;23615;51.506;7.678;2023-11-21T01:19:04;5.03;;;4.40;;
37777;SDS011;23615;51.506;7.678;2023-11-21T01:21:30;6.67;;;5.13;;
37777;SDS011;23615;51.506;7.678;2023-11-21T01:23:56;5.85;;;4.68;;
37777;SDS011;23615;51.506;7.678;2023-11-21T01:26:21;5.10;;;4.55;;
37777;SDS011;23615;51.506;7.678;2023-11-21T01:28:47;4.60;;;4.20;;
37777;SDS011;23615;51.506;7.678;2023-11-21T01:31:14;8.85;;;5.22;;
37777;SDS011;23615;51.506;7.678;2023-11-21T01:33:39;4.50;;;4.10;;
37777;SDS011;23615;51.506;7.678;2023-11-21T01:36:05;4.83;;;4.23;;
37777;SDS011;23615;51.506;7.678;2023-11-21T01:38:30;5.13;;;4.63;;
37777;SDS011;23615;51.506;7.678;2023-11-21T01:40:57;5.90;;;5.30;;
37777;SDS011;23615;51.506;7.678;2023-11-21T01:43:22;4.37;;;3.97;;
37777;SDS011;23615;51.506;7.678;2023-11-21T01:45:47;4.40;;;4.00;;
37777;SDS011;23615;51.506;7.678;2023-11-21T01:48:13;4.23;;;3.37;;
37777;SDS011;23615;51.506;7.678;2023-11-21T01:50:38;6.40;;;4.90;;
37777;SDS011;23615;51.506;7.678;2023-11-21T01:53:04;6.13;;;5.50;;
37777;SDS011;23615;51.506;7.678;2023-11-21T01:55:31;6.13;;;5.50;;
37777;SDS011;23615;51.506;7.678;2023-11-21T01:57:58;8.02;;;6.85;;
37777;SDS011;23615;51.506;7.678;2023-11-21T02:00:24;8.37;;;6.13;;
37777;SDS011;23615;51.506;7.678;2023-11-21T02:02:50;8.23;;;6.15;;
37777;SDS011;23615;51.506;7.678;2023-11-21T02:05:16;7.77;;;6.00;;
37777;SDS011;23615;51.506;7.678;2023-11-21T02:07:46;5.70;;;5.03;;
37777;SDS011;23615;51.506;7.678;2023-11-21T02:10:13;5.43;;;4.88;;
37777;SDS011;23615;51.506;7.678;2023-11-21T02:12:40;7.07;;;5.90;;
37777;SDS011;23615;51.506;7.678;2023-11-21T02:15:12;7.05;;;5.90;;
37777;SDS011;23615;51.506;7.678;2023-11-21T02:17:51;5.82;;;5.05;;
37777;SDS011;23615;51.506;7.678;2023-11-21T02:20:18;5.43;;;4.93;;
37777;SDS011;23615;51.506;7.678;2023-11-21T02:22:51;5.80;;;4.95;;
37777;SDS011;23615;51.506;7.678;2023-11-21T02:25:28;5.50;;;5.00;;
37777;SDS011;23615;51.506;7.678;2023-11-21T02:27:54;4.65;;;4.25;;
37777;SDS011;23615;51.506;7.678;2023-11-21T02:30:21;7.00;;;4.32;;
37777;SDS011;23615;51.506;7.678;2023-11-21T02:32:49;5.07;;;4.50;;
37777;SDS011;23615;51.506;7.678;2023-11-21T02:35:18;7.00;;;4.70;;
37777;SDS011;23615;51.506;7.678;2023-11-21T02:37:46;5.13;;;4.70;;
37777;SDS011;23615;51.506;7.678;2023-11-21T02:40:11;4.30;;;3.92;;
37777;SDS011;23615;51.506;7.678;2023-11-21T02:42:37;4.50;;;4.10;;
37777;SDS011;23615;51.506;7.678;2023-11-21T02:45:03;5.40;;;4.17;;
37777;SDS011;23615;51.506;7.678;2023-11-21T02:47:29;4.90;;;4.18;;
37777;SDS011;23615;51.506;7.678;2023-11-21T02:49:54;5.63;;;4.33;;
37777;SDS011;23615;51.506;7.678;2023-11-21T02:52:19;5.60;;;4.33;;
37777;SDS011;23615;51.506;7.678;2023-11-21T02:54:45;4.90;;;4.27;;
37777;SDS011;23615;51.506;7.678;2023-11-21T02:57:10;4.70;;;4.30;;
37777;SDS011;23615;51.506;7.678;2023-11-21T02:59:36;4.60;;;3.80;;
37777;SDS011;23615;51.506;7.678;2023-11-21T03:02:01;4.65;;;4.18;;
37777;SDS011;23615;51.506;7.678;2023-11-21T03:04:26;4.33;;;3.93;;
37777;SDS011;23615;51.506;7.678;2023-11-21T03:06:51;5.63;;;4.53;;
37777;SDS011;23615;51.506;7.678;2023-11-21T03:09:17;4.43;;;3.97;;
37777;SDS011;23615;51.506;7.678;2023-11-21T03:11:42;4.87;;;4.27;;
37777;SDS011;23615;51.506;7.678;2023-11-21T03:14:07;4.23;;;3.83;;
37777;SDS011;23615;51.506;7.678;2023-11-21T03:16:33;7.00;;;5.07;;
37777;SDS011;23615;51.506;7.678;2023-11-21T03:18:58;7.43;;;5.57;;
37777;SDS011;23615;51.506;7.678;2023-11-21T03:21:23;7.20;;;5.22;;
37777;SDS011;23615;51.506;7.678;2023-11-21T03:23:49;5.95;;;5.28;;
37777;SDS011;23615;51.506;7.678;2023-11-21T03:26:15;6.13;;;5.17;;
37777;SDS011;23615;51.506;7.678;2023-11-21T03:28:41;6.60;;;4.97;;
37777;SDS011;23615;51.506;7.678;2023-11-21T03:31:07;5.17;;;4.70;;
37777;SDS011;23615;51.506;7.678;2023-11-21T03:33:34;6.28;;;4.53;;
37777;SDS011;23615;51.506;7.678;2023-11-21T03:36:00;5.10;;;4.40;;
37777;SDS011;23615;51.506;7.678;2023-11-21T03:38:25;5.43;;;4.75;;
37777;SDS011;23615;51.506;7.678;2023-11-21T03:40:50;4.93;;;4.33;;
37777;SDS011;23615;51.506;7.678;2023-11-21T03:43:16;4.50;;;4.07;;
37777;SDS011;23615;51.506;7.678;2023-11-21T03:45:41;5.27;;;4.40;;
37777;SDS011;23615;51.506;7.678;2023-11-21T03:48:06;5.27;;;4.73;;
37777;SDS011;23615;51.506;7.678;2023-11-21T03:50:32;4.40;;;4.00;;
37777;SDS011;23615;51.506;7.678;2023-11-21T03:52:58;5.05;;;4.55;;
37777;SDS011;23615;51.506;7.678;2023-11-21T03:55:23;5.27;;;4.60;;
37777;SDS011;23615;51.506;7.678;2023-11-21T03:57:49;4.28;;;3.60;;
37777;SDS011;23615;51.506;7.678;2023-11-21T04:00:16;6.30;;;4.45;;
37777;SDS011;23615;51.506;7.678;2023-11-21T04:02:42;5.78;;;4.10;;
37777;SDS011;23615;51.506;7.678;2023-11-21T04:05:07;5.03;;;3.92;;
37777;SDS011;23615;51.506;7.678;2023-11-21T04:07:34;4.85;;;4.03;;
37777;SDS011;23615;51.506;7.678;2023-11-21T04:09:59;5.40;;;4.57;;
37777;SDS011;23615;51.506;7.678;2023-11-21T04:12:25;5.38;;;4.70;;
37777;SDS011;23615;51.506;7.678;2023-11-21T04:14:50;5.60;;;5.00;;
37777;SDS011;23615;51.506;7.678;2023-11-21T04:17:17;5.90;;;4.50;;
37777;SDS011;23615;51.506;7.678;2023-11-21T04:19:43;5.35;;;4.22;;
37777;SDS011;23615;51.506;7.678;2023-11-21T04:22:08;4.87;;;4.00;;
37777;SDS011;23615;51.506;7.678;2023-11-21T04:24:33;5.67;;;4.07;;
37777;SDS011;23615;51.506;7.678;2023-11-21T04:26:59;6.60;;;4.53;;
37777;SDS011;23615;51.506;7.678;2023-11-21T04:29:24;6.37;;;4.43;;
37777;SDS011;23615;51.506;7.678;2023-11-21T04:31:49;5.13;;;4.60;;
37777;SDS011;23615;51.506;7.678;2023-11-21T04:34:15;4.57;;;4.13;;
37777;SDS011;23615;51.506;7.678;2023-11-21T04:36:40;4.93;;;4.43;;
37777;SDS011;23615;51.506;7.678;2023-11-21T04:39:05;5.75;;;4.78;;
37777;SDS011;23615;51.506;7.678;2023-11-21T04:41:31;8.10;;;5.43;;
37777;SDS011;23615;51.506;7.678;2023-11-21T04:43:57;4.80;;;4.27;;
37777;SDS011;23615;51.506;7.678;2023-11-21T04:46:23;5.07;;;4.38;;
37777;SDS011;23615;51.506;7.678;2023-11-21T04:48:49;4.60;;;4.10;;
37777;SDS011;23615;51.506;7.678;2023-11-21T04:51:14;5.07;;;4.53;;
37777;SDS011;23615;51.506;7.678;2023-11-21T04:53:39;4.95;;;3.95;;
37777;SDS011;23615;51.506;7.678;2023-11-21T04:56:05;5.45;;;4.40;;
37777;SDS011;23615;51.506;7.678;2023-11-21T04:58:30;6.30;;;4.63;;
37777;SDS011;23615;51.506;7.678;2023-11-21T05:00:55;4.43;;;4.03;;
37777;SDS011;23615;51.506;7.678;2023-11-21T05:03:21;5.10;;;4.53;;
37777;SDS011;23615;51.506;7.678;2023-11-21T05:05:48;6.93;;;4.40;;
37777;SDS011;23615;51.506;7.678;2023-11-21T05:08:13;5.17;;;4.27;;
37777;SDS011;23615;51.506;7.678;2023-11-21T05:10:39;5.70;;;5.10;;
37777;SDS011;23615;51.506;7.678;2023-11-21T05:13:04;7.83;;;5.90;;
37777;SDS011;23615;51.506;7.678;2023-11-21T05:15:30;5.60;;;4.57;;
37777;SDS011;23615;51.506;7.678;2023-11-21T05:17:55;5.53;;;4.57;;
37777;SDS011;23615;51.506;7.678;2023-11-21T05:20:24;6.72;;;4.28;;
37777;SDS011;23615;51.506;7.678;2023-11-21T05:22:50;5.07;;;4.57;;
37777;SDS011;23615;51.506;7.678;2023-11-21T05:25:15;4.75;;;4.03;;
37777;SDS011;23615;51.506;7.678;2023-11-21T05:27:43;10.45;;;9.35;;
37777;SDS011;23615;51.506;7.678;2023-11-21T05:30:09;8.73;;;7.10;;
37777;SDS011;23615;51.506;7.678;2023-11-21T05:32:37;6.20;;;5.60;;
37777;SDS011;23615;51.506;7.678;2023-11-21T05:35:02;6.43;;;5.47;;
37777;SDS011;23615;51.506;7.678;2023-11-21T05:37:28;8.18;;;5.53;;
37777;SDS011;23615;51.506;7.678;2023-11-21T05:39:54;4.90;;;4.17;;
37777;SDS011;23615;51.506;7.678;2023-11-21T05:42:22;4.85;;;4.38;;
37777;SDS011;23615;51.506;7.678;2023-11-21T05:44:48;6.47;;;5.07;;
37777;SDS011;23615;51.506;7.678;2023-11-21T05:47:13;8.40;;;6.60;;
37777;SDS011;23615;51.506;7.678;2023-11-21T05:49:39;8.63;;;6.03;;
37777;SDS011;23615;51.506;7.678;2023-11-21T05:52:04;7.83;;;6.53;;
37777;SDS011;23615;51.506;7.678;2023-11-21T05:54:30;6.28;;;5.43;;
37777;SDS011;23615;51.506;7.678;2023-11-21T05:56:55;7.00;;;5.23;;
37777;SDS011;23615;51.506;7.678;2023-11-21T05:59:21;7.17;;;5.80;;
37777;SDS011;23615;51.506;7.678;2023-11-21T06:01:46;6.43;;;5.47;;
37777;SDS011;23615;51.506;7.678;2023-11-21T06:04:11;6.63;;;5.13;;
37777;SDS011;23615;51.506;7.678;2023-11-21T06:06:37;7.63;;;6.83;;
37777;SDS011;23615;51.506;7.678;2023-11-21T06:09:03;8.82;;;6.95;;
37777;SDS011;23615;51.506;7.678;2023-11-21T06:11:30;6.90;;;5.80;;
37777;SDS011;23615;51.506;7.678;2023-11-21T06:13:56;7.55;;;5.93;;
37777;SDS011;23615;51.506;7.678;2023-11-21T06:16:21;8.63;;;6.90;;
37777;SDS011;23615;51.506;7.678;2023-11-21T06:18:47;10.20;;;6.50;;
37777;SDS011;23615;51.506;7.678;2023-11-21T06:21:12;8.53;;;6.60;;
37777;SDS011;23615;51.506;7.678;2023-11-21T06:23:38;7.13;;;5.53;;
37777;SDS011;23615;51.506;7.678;2023-11-21T06:26:04;5.27;;;4.73;;
37777;SDS011;23615;51.506;7.678;2023-11-21T06:28:30;6.85;;;5.65;;
37777;SDS011;23615;51.506;7.678;2023-11-21T06:30:55;7.30;;;5.63;;
37777;SDS011;23615;51.506;7.678;2023-11-21T06:33:22;5.97;;;4.65;;
37777;SDS011;23615;51.506;7.678;2023-11-21T06:35:48;6.13;;;4.90;;
37777;SDS011;23615;51.506;7.678;2023-11-21T06:38:13;7.03;;;5.40;;
37777;SDS011;23615;51.506;7.678;2023-11-21T06:40:38;6.87;;;5.70;;
37777;SDS011;23615;51.506;7.678;2023-11-21T06:43:04;7.20;;;5.50;;
37777;SDS011;23615;51.506;7.678;2023-11-21T06:45:31;8.07;;;5.50;;
37777;SDS011;23615;51.506;7.678;2023-11-21T06:47:57;6.27;;;5.13;;
37777;SDS011;23615;51.506;7.678;2023-11-21T06:50:22;7.03;;;5.63;;
37777;SDS011;23615;51.506;7.678;2023-11-21T06:52:47;7.10;;;5.73;;
37777;SDS011;23615;51.506;7.678;2023-11-21T06:55:13;6.40;;;5.30;;
37777;SDS011;23615;51.506;7.678;2023-11-21T06:57:39;7.43;;;5.23;;
37777;SDS011;23615;51.506;7.678;2023-11-21T07:00:04;6.07;;;5.07;;
37777;SDS011;23615;51.506;7.678;2023-11-21T07:02:31;5.13;;;4.63;;
37777;SDS011;23615;51.506;7.678;2023-11-21T07:04:56;7.80;;;5.60;;
37777;SDS011;23615;51.506;7.678;2023-11-21T07:07:21;7.27;;;6.10;;
37777;SDS011;23615;51.506;7.678;2023-11-21T07:09:47;6.23;;;5.00;;
37777;SDS011;23615;51.506;7.678;2023-11-21T07:12:13;7.07;;;5.25;;
37777;SDS011;23615;51.506;7.678;2023-11-21T07:14:39;5.83;;;4.97;;
37777;SDS011;23615;51.506;7.678;2023-11-21T07:17:06;6.78;;;5.38;;
37777;SDS011;23615;51.506;7.678;2023-11-21T07:19:31;8.05;;;6.22;;
37777;SDS011;23615;51.506;7.678;2023-11-21T07:21:59;6.80;;;5.40;;
37777;SDS011;23615;51.506;7.678;2023-11-21T07:24:24;6.32;;;5.47;;
37777;SDS011;23615;51.506;7.678;2023-11-21T07:26:50;7.50;;;5.93;;
37777;SDS011;23615;51.506;7.678;2023-11-21T07:29:15;8.20;;;6.83;;
37777;SDS011;23615;51.506;7.678;2023-11-21T07:31:40;9.77;;;6.57;;
37777;SDS011;23615;51.506;7.678;2023-11-21T07:34:06;7.22;;;5.60;;
37777;SDS011;23615;51.506;7.678;2023-11-21T07:36:32;9.20;;;6.93;;
37777;SDS011;23615;51.506;7.678;2023-11-21T07:39:00;6.77;;;5.57;;
37777;SDS011;23615;51.506;7.678;2023-11-21T07:41:27;9.10;;;6.22;;
37777;SDS011;23615;51.506;7.678;2023-11-21T07:43:54;9.95;;;7.70;;
37777;SDS011;23615;51.506;7.678;2023-11-21T07:46:21;10.60;;;8.30;;
37777;SDS011;23615;51.506;7.678;2023-11-21T07:48:47;12.38;;;8.23;;
37777;SDS011;23615;51.506;7.678;2023-11-21T07:51:12;10.73;;;7.57;;
37777;SDS011;23615;51.506;7.678;2023-11-21T07:53:38;13.73;;;9.20;;
37777;SDS011;23615;51.506;7.678;2023-11-21T07:56:04;17.10;;;10.57;;
37777;SDS011;23615;51.506;7.678;2023-11-21T07:58:31;13.90;;;9.95;;
37777;SDS011;23615;51.506;7.678;2023-11-21T08:00:58;13.05;;;9.40;;
37777;SDS011;23615;51.506;7.678;2023-11-21T08:03:24;11.35;;;9.60;;
37777;SDS011;23615;51.506;7.678;2023-11-21T08:05:51;14.10;;;10.55;;
37777;SDS011;23615;51.506;7.678;2023-11-21T08:08:16;13.80;;;10.37;;
37777;SDS011;23615;51.506;7.678;2023-11-21T08:10:43;16.50;;;10.30;;
37777;SDS011;23615;51.506;7.678;2023-11-21T08:13:11;16.00;;;10.52;;
37777;SDS011;23615;51.506;7.678;2023-11-21T08:15:39;16.40;;;10.80;;
37777;SDS011;23615;51.506;7.678;2023-11-21T08:18:05;16.60;;;11.68;;
37777;SDS011;23615;51.506;7.678;2023-11-21T08:20:32;16.45;;;11.02;;
37777;SDS011;23615;51.506;7.678;2023-11-21T08:22:58;18.67;;;11.80;;
37777;SDS011;23615;51.506;7.678;2023-11-21T08:25:23;21.93;;;13.53;;
37777;SDS011;23615;51.506;7.678;2023-11-21T08:27:48;17.27;;;12.10;;
37777;SDS011;23615;51.506;7.678;2023-11-21T08:30:14;18.03;;;13.30;;
37777;SDS011;23615;51.506;7.678;2023-11-21T08:32:41;19.05;;;13.10;;
37777;SDS011;23615;51.506;7.678;2023-11-21T08:35:07;19.47;;;13.90;;
37777;SDS011;23615;51.506;7.678;2023-11-21T08:37:33;19.17;;;12.57;;
37777;SDS011;23615;51.506;7.678;2023-11-21T08:40:02;24.25;;;14.70;;
37777;SDS011;23615;51.506;7.678;2023-11-21T08:42:28;22.52;;;13.15;;
37777;SDS011;23615;51.506;7.678;2023-11-21T08:44:55;28.02;;;16.00;;
37777;SDS011;23615;51.506;7.678;2023-11-21T08:47:22;21.52;;;13.00;;
37777;SDS011;23615;51.506;7.678;2023-11-21T08:49:49;20.45;;;11.43;;
37777;SDS011;23615;51.506;7.678;2023-11-21T08:52:17;20.17;;;11.75;;
37777;SDS011;23615;51.506;7.678;2023-11-21T08:54:43;19.67;;;12.93;;
37777;SDS011;23615;51.506;7.678;2023-11-21T08:57:10;23.58;;;14.27;;
37777;SDS011;23615;51.506;7.678;2023-11-21T08:59:35;20.67;;;13.00;;
37777;SDS011;23615;51.506;7.678;2023-11-21T09:02:00;23.47;;;14.80;;
37777;SDS011;23615;51.506;7.678;2023-11-21T09:04:26;23.52;;;14.15;;
37777;SDS011;23615;51.506;7.678;2023-11-21T09:06:52;19.23;;;12.65;;
37777;SDS011;23615;51.506;7.678;2023-11-21T09:09:17;20.53;;;13.33;;
37777;SDS011;23615;51.506;7.678;2023-11-21T09:11:42;23.97;;;14.90;;
37777;SDS011;23615;51.506;7.678;2023-11-21T09:14:09;25.63;;;14.13;;
37777;SDS011;23615;51.506;7.678;2023-11-21T09:16:35;30.00;;;15.67;;
37777;SDS011;23615;51.506;7.678;2023-11-21T09:19:00;24.57;;;15.33;;
37777;SDS011;23615;51.506;7.678;2023-11-21T09:21:25;22.00;;;14.23;;
37777;SDS011;23615;51.506;7.678;2023-11-21T09:23:51;23.43;;;14.50;;
37777;SDS011;23615;51.506;7.678;2023-11-21T09:26:16;24.33;;;15.20;;
37777;SDS011;23615;51.506;7.678;2023-11-21T09:28:43;27.05;;;15.30;;
37777;SDS011;23615;51.506;7.678;2023-11-21T09:31:12;25.45;;;14.43;;
37777;SDS011;23615;51.506;7.678;2023-11-21T09:33:38;28.77;;;16.13;;
37777;SDS011;23615;51.506;7.678;2023-11-21T09:36:04;28.07;;;14.67;;
37777;SDS011;23615;51.506;7.678;2023-11-21T09:38:30;25.00;;;15.55;;
37777;SDS011;23615;51.506;7.678;2023-11-21T09:40:55;34.33;;;18.43;;
37777;SDS011;23615;51.506;7.678;2023-11-21T09:43:23;28.07;;;17.33;;
37777;SDS011;23615;51.506;7.678;2023-11-21T09:45:56;29.95;;;18.50;;
37777;SDS011;23615;51.506;7.678;2023-11-21T09:48:25;35.83;;;19.13;;
37777;SDS011;23615;51.506;7.678;2023-11-21T09:50:51;33.97;;;19.33;;
37777;SDS011;23615;51.506;7.678;2023-11-21T09:53:20;37.08;;;19.98;;
37777;SDS011;23615;51.506;7.678;2023-11-21T09:55:47;28.80;;;17.30;;
37777;SDS011;23615;51.506;7.678;2023-11-21T09:58:15;34.78;;;17.98;;
37777;SDS011;23615;51.506;7.678;2023-11-21T10:00:42;34.33;;;19.03;;
37777;SDS011;23615;51.506;7.678;2023-11-21T10:03:09;34.27;;;19.53;;
37777;SDS011;23615;51.506;7.678;2023-11-21T10:05:35;36.83;;;19.17;;
37777;SDS011;23615;51.506;7.678;2023-11-21T10:08:01;34.80;;;19.60;;
37777;SDS011;23615;51.506;7.678;2023-11-21T10:10:32;38.33;;;19.70;;
37777;SDS011;23615;51.506;7.678;2023-11-21T10:12:57;33.23;;;19.90;;
37777;SDS011;23615;51.506;7.678;2023-11-21T10:15:28;40.03;;;21.58;;
37777;SDS011;23615;51.506;7.678;2023-11-21T10:17:55;41.67;;;20.77;;
37777;SDS011;23615;51.506;7.678;2023-11-21T10:20:21;35.83;;;20.42;;
37777;SDS011;23615;51.506;7.678;2023-11-21T10:22:49;37.90;;;22.00;;
37777;SDS011;23615;51.506;7.678;2023-11-21T10:25:15;35.67;;;21.90;;
37777;SDS011;23615;51.506;7.678;2023-11-21T10:27:40;46.83;;;24.70;;
37777;SDS011;23615;51.506;7.678;2023-11-21T10:30:09;44.88;;;25.45;;
37777;SDS011;23615;51.506;7.678;2023-11-21T10:32:41;37.40;;;22.25;;
37777;SDS011;23615;51.506;7.678;2023-11-21T10:35:07;41.78;;;23.08;;
37777;SDS011;23615;51.506;7.678;2023-11-21T10:37:41;44.70;;;24.48;;
37777;SDS011;23615;51.506;7.678;2023-11-21T10:40:08;40.10;;;23.88;;
37777;SDS011;23615;51.506;7.678;2023-11-21T10:42:37;43.85;;;25.40;;
37777;SDS011;23615;51.506;7.678;2023-11-21T10:45:03;41.78;;;23.35;;
37777;SDS011;23615;51.506;7.678;2023-11-21T10:47:34;48.97;;;25.40;;
37777;SDS011;23615;51.506;7.678;2023-11-21T10:50:01;41.50;;;23.77;;
37777;SDS011;23615;51.506;7.678;2023-11-21T10:52:27;44.67;;;24.23;;
37777;SDS011;23615;51.506;7.678;2023-11-21T10:54:52;44.45;;;25.10;;
37777;SDS011;23615;51.506;7.678;2023-11-21T10:57:18;38.50;;;22.67;;
37777;SDS011;23615;51.506;7.678;2023-11-21T10:59:47;32.78;;;20.65;;
37777;SDS011;23615;51.506;7.678;2023-11-21T11:02:21;35.22;;;21.17;;
37777;SDS011;23615;51.506;7.678;2023-11-21T11:04:51;37.40;;;21.33;;
37777;SDS011;23615;51.506;7.678;2023-11-21T11:07:17;35.78;;;21.77;;
37777;SDS011;23615;51.506;7.678;2023-11-21T11:09:45;35.65;;;20.70;;
37777;SDS011;23615;51.506;7.678;2023-11-21T11:12:12;38.80;;;22.10;;
37777;SDS011;23615;51.506;7.678;2023-11-21T11:14:40;37.97;;;22.50;;
37777;SDS011;23615;51.506;7.678;2023-11-21T11:17:06;40.33;;;22.52;;
37777;SDS011;23615;51.506;7.678;2023-11-21T11:19:33;35.85;;;20.48;;
37777;SDS011;23615;51.506;7.678;2023-11-21T11:28:09;43.83;;;24.92;;
37777;SDS011;23615;51.506;7.678;2023-11-21T11:31:13;34.13;;;21.30;;
37777;SDS011;23615;51.506;7.678;2023-11-21T11:33:59;37.22;;;21.30;;
37777;SDS011;23615;51.506;7.678;2023-11-21T11:36:36;34.03;;;19.83;;
37777;SDS011;23615;51.506;7.678;2023-11-21T11:39:26;29.33;;;18.75;;
37777;SDS011;23615;51.506;7.678;2023-11-21T11:42:03;32.75;;;17.60;;
37777;SDS011;23615;51.506;7.678;2023-11-21T11:47:27;29.80;;;17.42;;
37777;SDS011;23615;51.506;7.678;2023-11-21T11:50:07;22.63;;;14.18;;
37777;SDS011;23615;51.506;7.678;2023-11-21T11:55:08;17.13;;;9.37;;
37777;SDS011;23615;51.506;7.678;2023-11-21T11:57:35;14.02;;;8.52;;
37777;SDS011;23615;51.506;7.678;2023-11-21T12:02:51;12.30;;;7.43;;
37777;SDS011;23615;51.506;7.678;2023-11-21T12:05:18;13.68;;;7.68;;
37777;SDS011;23615;51.506;7.678;2023-11-21T12:07:45;10.48;;;6.55;;
37777;SDS011;23615;51.506;7.678;2023-11-21T12:10:13;11.25;;;6.75;;
37777;SDS011;23615;51.506;7.678;2023-11-21T12:12:41;12.65;;;7.05;;
37777;SDS011;23615;51.506;7.678;2023-11-21T12:15:09;9.97;;;5.90;;
37777;SDS011;23615;51.506;7.678;2023-11-21T12:17:35;10.93;;;7.15;;
37777;SDS011;23615;51.506;7.678;2023-11-21T12:20:04;9.10;;;6.53;;
37777;SDS011;23615;51.506;7.678;2023-11-21T12:22:31;11.15;;;6.40;;
37777;SDS011;23615;51.506;7.678;2023-11-21T12:24:56;11.10;;;6.77;;
37777;SDS011;23615;51.506;7.678;2023-11-21T12:27:22;11.53;;;7.67;;
37777;SDS011;23615;51.506;7.678;2023-11-21T12:29:47;13.47;;;8.80;;
37777;SDS011;23615;51.506;7.678;2023-11-21T12:32:12;10.53;;;7.23;;
37777;SDS011;23615;51.506;7.678;2023-11-21T12:34:40;12.35;;;8.18;;
37777;SDS011;23615;51.506;7.678;2023-11-21T12:37:05;13.73;;;8.85;;
37777;SDS011;23615;51.506;7.678;2023-11-21T12:39:31;13.02;;;8.35;;
37777;SDS011;23615;51.506;7.678;2023-11-21T12:41:56;13.10;;;8.70;;
37777;SDS011;23615;51.506;7.678;2023-11-21T12:44:22;13.55;;;10.05;;
37777;SDS011;23615;51.506;7.678;2023-11-21T12:46:49;14.40;;;9.25;;
37777;SDS011;23615;51.506;7.678;2023-11-21T12:49:15;15.45;;;10.88;;
37777;SDS011;23615;51.506;7.678;2023-11-21T12:51:44;14.75;;;9.85;;
37777;SDS011;23615;51.506;7.678;2023-11-21T12:54:11;14.65;;;10.48;;
37777;SDS011;23615;51.506;7.678;2023-11-21T12:56:40;15.55;;;10.68;;
37777;SDS011;23615;51.506;7.678;2023-11-21T12:59:06;16.90;;;11.32;;
37777;SDS011;23615;51.506;7.678;2023-11-21T13:01:31;16.70;;;10.60;;
37777;SDS011;23615;51.506;7.678;2023-11-21T13:03:57;13.60;;;9.25;;
37777;SDS011;23615;51.506;7.678;2023-11-21T13:06:23;14.48;;;8.65;;
37777;SDS011;23615;51.506;7.678;2023-11-21T13:08:50;11.73;;;8.85;;
37777;SDS011;23615;51.506;7.678;2023-11-21T13:11:16;14.13;;;9.60;;
37777;SDS011;23615;51.506;7.678;2023-11-21T13:13:42;13.63;;;9.27;;
37777;SDS011;23615;51.506;7.678;2023-11-21T13:16:08;12.93;;;8.45;;
37777;SDS011;23615;51.506;7.678;2023-11-21T13:18:34;11.77;;;8.40;;
37777;SDS011;23615;51.506;7.678;2023-11-21T13:21:04;11.30;;;7.60;;
37777;SDS011;23615;51.506;7.678;2023-11-21T13:23:39;11.30;;;7.78;;
37777;SDS011;23615;51.506;7.678;2023-11-21T13:26:06;10.45;;;7.28;;
37777;SDS011;23615;51.506;7.678;2023-11-21T13:28:32;9.57;;;7.23;;
37777;SDS011;23615;51.506;7.678;2023-11-21T13:30:58;11.18;;;8.10;;
37777;SDS011;23615;51.506;7.678;2023-11-21T13:33:46;13.00;;;8.23;;
37777;SDS011;23615;51.506;7.678;2023-11-21T13:36:23;10.00;;;7.50;;
37777;SDS011;23615;51.506;7.678;2023-11-21T13:38:50;11.13;;;7.37;;
37777;SDS011;23615;51.506;7.678;2023-11-21T13:41:17;11.32;;;7.22;;
37777;SDS011;23615;51.506;7.678;2023-11-21T13:43:43;12.00;;;7.00;;
37777;SDS011;23615;51.506;7.678;2023-11-21T13:46:19;11.07;;;7.35;;
37777;SDS011;23615;51.506;7.678;2023-11-21T13:48:47;10.38;;;7.45;;
37777;SDS011;23615;51.506;7.678;2023-11-21T13:51:22;9.98;;;7.30;;
37777;SDS011;23615;51.506;7.678;2023-11-21T13:53:55;11.40;;;8.48;;
37777;SDS011;23615;51.506;7.678;2023-11-21T13:56:21;10.67;;;7.40;;
37777;SDS011;23615;51.506;7.678;2023-11-21T13:58:49;10.63;;;6.70;;
37777;SDS011;23615;51.506;7.678;2023-11-21T14:01:21;9.93;;;6.97;;
37777;SDS011;23615;51.506;7.678;2023-11-21T14:03:57;9.05;;;6.50;;
37777;SDS011;23615;51.506;7.678;2023-11-21T14:06:37;8.40;;;6.70;;
37777;SDS011;23615;51.506;7.678;2023-11-21T14:09:13;8.33;;;5.97;;
37777;SDS011;23615;51.506;7.678;2023-11-21T14:11:47;8.52;;;6.03;;
37777;SDS011;23615;51.506;7.678;2023-11-21T14:14:14;7.93;;;6.00;;
37777;SDS011;23615;51.506;7.678;2023-11-21T14:16:39;6.38;;;5.00;;
37777;SDS011;23615;51.506;7.678;2023-11-21T14:19:04;5.37;;;4.33;;
37777;SDS011;23615;51.506;7.678;2023-11-21T14:21:40;4.68;;;3.80;;
37777;SDS011;23615;51.506;7.678;2023-11-21T14:24:08;4.85;;;3.22;;
37777;SDS011;23615;51.506;7.678;2023-11-21T14:26:34;3.88;;;3.33;;
37777;SDS011;23615;51.506;7.678;2023-11-21T14:29:00;5.70;;;4.25;;
37777;SDS011;23615;51.506;7.678;2023-11-21T14:31:26;5.63;;;4.70;;
37777;SDS011;23615;51.506;7.678;2023-11-21T14:33:52;5.30;;;4.13;;
37777;SDS011;23615;51.506;7.678;2023-11-21T14:36:18;5.60;;;4.55;;
37777;SDS011;23615;51.506;7.678;2023-11-21T14:38:43;4.97;;;4.37;;
37777;SDS011;23615;51.506;7.678;2023-11-21T14:41:08;7.17;;;5.63;;
37777;SDS011;23615;51.506;7.678;2023-11-21T14:43:36;6.68;;;5.75;;
37777;SDS011;23615;51.506;7.678;2023-11-21T14:46:02;6.95;;;6.25;;
37777;SDS011;23615;51.506;7.678;2023-11-21T14:48:35;8.55;;;7.65;;
37777;SDS011;23615;51.506;7.678;2023-11-21T14:51:08;9.77;;;8.48;;